Latest Weather Observations for Kalumburu

IDW60801

Issued at 10:04 am WST Monday 23 January 2017 (issued every 30 minutes, with the page automatically refreshed every 10 minutes)

About weather observations | Map of weather stations | Latest weather observations for WA | Other Formats
Station Details ID: 001019 Name: KALUMBURU Lat: -14.30 Lon: 126.65 Height: 23.0 m
Data from the previous 72 hours. | See also: Recent months at Kalumburu
Date/Time
WST
Temp
°C
App
Temp
°C
Dew
Point
°C
Rel
Hum
%
Delta-T
°C
Wind Press
QNH
hPa
Press
MSL
hPa
Rain since
9am
mm
Dir  Spd
km/h
Gust
km/h
Spd
kts
Gust
kts
23/09:30am 31.8 34.7 22.5 58 6.4 WSW 11 19 6 10 1008.6 1008.4 0.0
23/09:00am 30.2 33.3 22.1 62 5.5 SW 9 17 5 9 1008.6 1008.4 0.0
23/08:30am 29.6 32.9 22.6 66 4.8 WSW 9 15 5 8 1008.4 1008.2 0.0
23/08:00am 29.0 32.6 23.0 70 4.1 WSW 9 15 5 8 1008.5 1008.3 0.0
23/07:30am 28.4 32.3 22.9 72 3.7 SW 7 13 4 7 1008.7 1008.5 0.0
23/07:00am 28.4 32.4 23.1 73 3.6 SW 7 13 4 7 1008.5 1008.3 0.0
23/06:30am 27.6 33.0 23.8 80 2.6 WSW 2 6 1 3 1008.3 1008.1 0.0
23/06:00am 26.7 32.3 23.6 83 2.1 CALM 0 6 0 3 1008.0 1007.8 0.0
23/05:30am 26.5 31.6 23.4 83 2.1 SSW 2 7 1 4 1007.8 1007.6 0.0
23/05:00am 26.2 31.4 23.5 85 1.8 SSW 2 7 1 4 1007.5 1007.3 0.0
23/04:30am 26.2 31.4 22.9 82 2.2 CALM 0 0 0 0 1006.8 1006.6 0.0
23/04:00am 26.5 31.9 23.2 82 2.3 CALM 0 0 0 0 1006.4 1006.2 0.0
23/03:30am 27.1 32.3 22.9 78 2.9 CALM 0 0 0 0 1006.3 1006.1 0.0
23/03:00am 27.4 32.2 22.8 76 3.1 WSW 2 7 1 4 1006.2 1006.0 0.0
23/02:30am 27.5 31.4 22.9 76 3.1 W 7 13 4 7 1006.2 1006.0 0.0
23/02:00am 27.6 31.8 23.2 77 3.0 W 6 11 3 6 1006.6 1006.4 0.0
23/01:30am 27.1 32.2 23.3 80 2.6 W 2 9 1 5 1006.8 1006.6 0.0
23/01:00am 26.8 32.2 23.3 81 2.4 CALM 0 0 0 0 1007.1 1006.9 0.0
23/12:30am 27.3 31.6 23.3 79 2.7 WNW 6 9 3 5 1007.3 1007.1 0.0
23/12:00am 26.8 32.2 23.3 81 2.4 CALM 0 0 0 0 1007.6 1007.4 0.0
 
Date/Time
WST
Temp
°C
App
Temp
°C
Dew
Point
°C
Rel
Hum
%
Delta-T
°C
Wind Press
QNH
hPa
Press
MSL
hPa
Rain since
9am
mm
Dir  Spd
km/h
Gust
km/h
Spd
kts
Gust
kts
22/11:30pm 26.9 31.9 23.2 80 2.5 W 2 7 1 4 1007.7 1007.5 0.0
22/11:00pm 27.1 31.3 23.1 79 2.7 WNW 6 9 3 5 1008.3 1008.1 0.0
22/10:30pm 26.8 32.4 23.5 82 2.3 CALM 0 0 0 0 1008.8 1008.6 0.0
22/10:00pm 27.8 32.3 23.0 75 3.3 WNW 4 7 2 4 1008.9 1008.7 0.0
22/09:30pm 28.1 32.2 23.0 74 3.5 WNW 6 7 3 4 1008.9 1008.7 0.0
22/09:00pm 28.2 32.3 22.9 73 3.6 WNW 6 9 3 5 1008.5 1008.3 0.0
22/08:30pm 28.6 32.3 22.6 70 4.1 WNW 7 11 4 6 1008.1 1007.9 0.0
22/08:00pm 28.7 32.5 22.4 68 4.3 NW 6 13 3 7 1007.9 1007.7 0.0
22/07:30pm 29.1 32.4 22.6 68 4.4 NW 9 15 5 8 1007.5 1007.3 0.0
22/07:00pm 29.4 32.7 22.6 67 4.6 WNW 9 17 5 9 1007.3 1007.1 0.0
22/06:30pm 29.8 33.3 22.8 66 4.8 WNW 9 20 5 11 1007.3 1007.1 0.0
22/06:00pm 30.4 33.3 23.1 65 5.0 WNW 13 20 7 11 1007.1 1006.9 0.0
22/05:30pm 31.2 34.0 23.0 61 5.6 WNW 13 20 7 11 1006.6 1006.4 0.0
22/05:00pm 32.2 35.2 23.4 59 6.1 WNW 13 24 7 13 1006.3 1006.1 0.0
22/04:30pm 32.1 34.0 22.8 58 6.4 WNW 17 26 9 14 1005.7 1005.5 0.0
22/04:00pm 32.8 34.5 22.3 54 7.2 WNW 17 28 9 15 1005.4 1005.2 0.0
22/03:30pm 33.3 34.6 22.4 52 7.5 WNW 19 28 10 15 1005.0 1004.8 0.0
22/03:00pm 33.3 35.2 22.7 53 7.3 WNW 17 32 9 17 1005.2 1005.0 0.0
22/02:30pm 33.7 35.2 21.2 48 8.4 WNW 15 30 8 16 1005.3 1005.1 0.0
22/02:00pm 34.3 36.2 22.0 48 8.4 NW 15 28 8 15 1005.9 1005.7 0.0
22/01:30pm 33.9 34.7 19.9 43 9.3 NW 15 24 8 13 1006.3 1006.1 0.0
22/01:00pm 34.4 36.3 21.4 46 8.8 NW 13 20 7 11 1007.1 1006.9 0.0
22/12:30pm 32.8 35.5 21.3 50 7.8 WNW 9 17 5 9 1007.6 1007.4 0.0
22/12:00pm 32.5 35.2 21.4 52 7.5 W 9 17 5 9 1008.1 1007.9 0.0
22/11:30am 32.9 35.9 22.0 52 7.4 NW 9 15 5 8 1008.5 1008.3 0.0
22/11:00am 29.7 33.1 23.4 69 4.3 NW 11 19 6 10 1009.1 1008.9 0.0
22/10:30am 31.7 35.2 22.1 56 6.5 WNW 7 13 4 7 1009.2 1009.0 0.0
22/10:00am 31.6 34.8 21.7 55 6.7 WSW 7 15 4 8 1009.4 1009.2 0.0
22/09:30am 32.8 36.7 22.9 56 6.8 W 7 13 4 7 1009.6 1009.4 0.0
22/09:00am 31.5 34.1 21.9 56 6.5 WNW 11 19 6 10 1009.8 1009.6 0.2
22/08:30am 30.2 33.7 22.9 65 5.0 WNW 9 15 5 8 1010.1 1009.9 0.2
22/08:00am 30.3 33.6 22.5 63 5.3 WNW 9 15 5 8 1010.1 1009.9 0.2
22/07:30am 29.8 32.8 22.0 63 5.3 W 9 13 5 7 1010.0 1009.8 0.2
22/07:00am 29.9 34.0 22.9 66 4.8 SSW 6 13 3 7 1009.8 1009.6 0.2
22/06:30am 28.8 33.7 23.0 71 4.0 SW 2 6 1 3 1009.7 1009.5 0.2
22/06:00am 26.2 31.8 23.5 85 1.8 CALM 0 0 0 0 1009.5 1009.3 0.2
22/05:30am 25.7 30.4 22.6 83 2.1 W 2 7 1 4 1009.6 1009.4 0.2
22/05:00am 26.3 30.2 22.6 80 2.5 WNW 6 7 3 4 1009.3 1009.1 0.2
22/04:30am 26.4 32.2 23.9 86 1.7 CALM 0 7 0 4 1009.1 1008.9 0.2
22/04:00am 26.2 32.1 24.1 88 1.4 CALM 0 0 0 0 1009.0 1008.8 0.2
22/03:30am 26.1 31.9 24.0 88 1.4 CALM 0 0 0 0 1008.7 1008.5 0.2
22/03:00am 26.2 32.1 24.1 88 1.4 CALM 0 0 0 0 1008.7 1008.5 0.2
22/02:30am 26.2 32.0 23.9 87 1.6 CALM 0 0 0 0 1009.0 1008.8 0.2
22/02:00am 26.4 32.1 23.7 85 1.9 CALM 0 0 0 0 1008.9 1008.7 0.2
22/01:30am 26.9 31.5 23.8 83 2.1 NW 6 9 3 5 1009.1 1008.9 0.2
22/01:00am 27.1 31.5 23.8 82 2.3 NW 7 9 4 5 1009.1 1008.9 0.2
22/12:30am 27.2 32.0 24.1 83 2.1 NW 6 9 3 5 1009.4 1009.2 0.2
22/12:00am 27.5 31.7 24.1 82 2.4 NW 9 11 5 6 1009.6 1009.4 0.2
 
Date/Time
WST
Temp
°C
App
Temp
°C
Dew
Point
°C
Rel
Hum
%
Delta-T
°C
Wind Press
QNH
hPa
Press
MSL
hPa
Rain since
9am
mm
Dir  Spd
km/h
Gust
km/h
Spd
kts
Gust
kts
21/11:30pm 27.4 32.0 24.1 82 2.3 NW 7 11 4 6 1009.8 1009.6 0.2
21/11:00pm 27.3 31.6 23.7 81 2.5 NW 7 9 4 5 1009.9 1009.7 0.2
21/10:30pm 27.4 31.7 23.6 80 2.6 NW 7 11 4 6 1010.1 1009.9 0.2
21/10:00pm 27.2 31.7 23.7 81 2.4 NW 6 9 3 5 1010.3 1010.1 0.2
21/09:30pm 26.8 31.3 23.7 83 2.1 NW 6 6 3 3 1010.3 1010.1 0.2
21/09:00pm 27.2 32.2 23.2 79 2.7 WNW 2 6 1 3 1009.8 1009.6 0.2
21/08:30pm 27.6 32.5 23.0 76 3.1 WNW 2 9 1 5 1009.3 1009.1 0.2
21/08:00pm 27.9 32.6 22.6 73 3.6 WSW 2 6 1 3 1008.9 1008.7 0.2
21/07:30pm 28.3 32.0 22.5 71 3.9 W 7 13 4 7 1008.7 1008.5 0.2
21/07:00pm 28.4 32.3 22.9 72 3.8 WNW 7 13 4 7 1008.6 1008.4 0.2
21/06:30pm 28.6 31.9 22.6 70 4.1 WNW 9 15 5 8 1008.4 1008.2 0.2
21/06:00pm 28.9 31.4 22.4 68 4.4 WNW 13 20 7 11 1007.9 1007.7 0.2
21/05:30pm 29.5 31.9 22.2 65 4.9 NW 13 19 7 10 1007.7 1007.5 0.2
21/05:00pm 29.9 32.1 21.8 62 5.5 WNW 13 20 7 11 1007.5 1007.3 0.2
21/04:30pm 30.4 32.9 21.8 60 5.8 WNW 11 19 6 10 1007.3 1007.1 0.2
21/04:00pm 30.9 32.2 20.8 55 6.8 NW 15 22 8 12 1007.2 1007.0 0.2
21/03:30pm 31.4 32.6 20.7 53 7.1 WNW 15 24 8 13 1006.8 1006.6 0.2
21/03:00pm 32.7 33.5 20.6 49 8.1 WNW 17 28 9 15 1006.9 1006.7 0.2
21/02:30pm 32.1 33.4 21.6 53 7.1 WNW 17 26 9 14 1007.1 1006.9 0.2
21/02:00pm 32.4 34.1 21.6 53 7.3 NW 15 24 8 13 1007.2 1007.0 0.2
21/01:30pm 31.9 34.5 22.6 58 6.4 WNW 13 20 7 11 1007.7 1007.5 0.2
21/01:00pm 31.0 34.9 23.6 64 5.1 NW 9 15 5 8 1008.0 1007.8 0.2
21/12:30pm 30.0 34.3 24.2 71 4.0 NNW 9 19 5 10 1008.5 1008.3 0.2
21/12:00pm 31.2 35.5 24.3 66 4.8 NNW 9 13 5 7 1008.9 1008.7 0.2
21/11:30am 29.9 33.9 23.1 67 4.7 NW 7 11 4 6 1009.3 1009.1 0.2
21/11:00am 30.7 34.4 22.3 61 5.7 WNW 6 9 3 5 1009.5 1009.3 0.2
21/10:30am 30.1 34.3 22.5 63 5.2 NNW 4 7 2 4 1009.9 1009.7 0.2
21/10:00am 29.6 33.2 22.3 65 5.0 S 7 13 4 7 1010.1 1009.9 0.2
21/09:30am 29.4 33.4 23.1 69 4.3 SSW 7 11 4 6 1010.2 1010.0 0.0
21/09:00am 28.7 31.9 22.4 68 4.3 WSW 9 15 5 8 1010.4 1010.2 45.6
21/08:30am 26.9 30.4 22.9 79 2.7 S 9 13 5 7 1010.5 1010.3 45.6
21/08:00am 26.2 31.4 22.9 82 2.2 CALM 0 6 0 3 1010.8 1010.6 45.6
21/07:30am 24.7 29.5 22.2 86 1.7 CALM 0 0 0 0 1010.7 1010.5 45.6
21/07:00am 24.4 27.9 21.9 86 1.7 SW 6 7 3 4 1010.4 1010.2 45.6
21/06:30am 24.4 27.3 21.7 85 1.8 SW 9 15 5 8 1010.2 1010.0 45.0
21/06:00am 25.4 31.0 23.5 89 1.3 CALM 0 0 0 0 1009.5 1009.3 44.8
21/05:30am 24.7 29.9 22.8 89 1.3 CALM 0 0 0 0 1009.0 1008.8 44.8
21/05:00am 24.9 30.1 22.8 88 1.4 CALM 0 0 0 0 1008.6 1008.4 44.8
21/04:30am 25.2 29.4 23.1 88 1.4 N 6 7 3 4 1008.5 1008.3 44.8
21/04:00am 25.4 29.6 23.5 89 1.3 N 7 11 4 6 1008.0 1007.8 44.8
21/03:30am 25.5 29.3 23.4 88 1.4 NNW 9 13 5 7 1007.8 1007.6 44.8
21/03:00am 25.2 30.7 23.4 90 1.2 CALM 0 0 0 0 1007.8 1007.6 44.6
21/02:30am 25.0 30.4 23.2 90 1.2 CALM 0 0 0 0 1007.8 1007.6 44.6
21/02:00am 24.8 30.0 22.9 89 1.3 CALM 0 0 0 0 1007.8 1007.6 44.6
21/01:30am 24.8 30.0 22.9 89 1.3 CALM 0 0 0 0 1007.5 1007.3 44.6
21/01:00am 24.8 30.0 22.9 89 1.3 CALM 0 0 0 0 1007.7 1007.5 44.6
21/12:30am 24.9 30.2 23.0 89 1.3 CALM 0 0 0 0 1007.8 1007.6 44.6
21/12:00am 24.7 29.8 22.6 88 1.4 CALM 0 0 0 0 1008.2 1008.0 44.6
 
Date/Time
WST
Temp
°C
App
Temp
°C
Dew
Point
°C
Rel
Hum
%
Delta-T
°C
Wind Press
QNH
hPa
Press
MSL
hPa
Rain since
9am
mm
Dir  Spd
km/h
Gust
km/h
Spd
kts
Gust
kts
20/11:30pm 25.0 30.1 22.7 87 1.6 CALM 0 0 0 0 1008.5 1008.3 44.6
20/11:00pm 25.1 30.0 22.4 85 1.8 CALM 0 0 0 0 1008.5 1008.3 44.6
20/10:30pm 25.9 29.0 22.8 83 2.1 WNW 11 19 6 10 1008.9 1008.7 44.6
20/10:00pm 25.4 30.8 23.3 88 1.4 CALM 0 0 0 0 1008.8 1008.6 44.4
20/09:30pm 25.1 30.0 22.4 85 1.8 CALM 0 0 0 0 1008.4 1008.2 44.4
20/09:00pm 25.5 30.4 22.4 83 2.1 CALM 0 0 0 0 1008.3 1008.1 44.4
20/08:30pm 25.7 30.6 22.4 82 2.2 CALM 0 0 0 0 1008.2 1008.0 44.4
20/08:00pm 26.3 30.9 22.4 79 2.6 WNW 2 7 1 4 1008.0 1007.8 44.4
20/07:30pm 26.6 30.4 22.4 78 2.8 WNW 6 7 3 4 1007.7 1007.5 44.4
20/07:00pm 26.9 31.6 21.9 74 3.4 CALM 0 0 0 0 1007.6 1007.4 44.2
20/06:30pm 27.6 30.6 21.9 71 3.8 WNW 9 13 5 7 1007.4 1007.2 44.2
20/06:00pm 28.1 31.3 22.3 70 3.9 WNW 9 15 5 8 1007.0 1006.8 44.2
20/05:30pm 28.6 31.8 22.3 68 4.3 WNW 9 15 5 8 1006.6 1006.4 44.2
20/05:00pm 28.8 30.8 22.3 68 4.4 WNW 15 26 8 14 1006.2 1006.0 44.2
20/04:30pm 28.9 32.1 23.1 71 4.0 WNW 11 20 6 11 1006.0 1005.8 44.2
20/04:00pm 28.7 32.8 24.0 76 3.3 NW 9 17 5 9 1005.9 1005.7 44.2
20/03:30pm 28.4 32.2 23.5 75 3.4 WNW 9 15 5 8 1006.2 1006.0 44.2
20/03:00pm 28.5 32.4 23.6 75 3.4 WNW 9 19 5 10 1006.4 1006.2 44.2
20/02:30pm 28.9 32.0 23.6 73 3.7 NW 13 20 7 11 1006.5 1006.3 44.2
20/02:00pm 29.0 32.7 24.6 77 3.1 NW 13 19 7 10 1006.7 1006.5 44.2
20/01:30pm 28.2 32.7 24.6 81 2.5 NNW 9 15 5 8 1007.1 1006.9 44.2
20/01:00pm 27.3 32.4 24.9 87 1.7 NNW 7 11 4 6 1007.1 1006.9 44.2
20/12:30pm 26.3 31.3 24.5 90 1.2 NNW 6 7 3 4 1007.3 1007.1 44.2
20/12:00pm 25.2 30.1 23.6 91 1.1 NNE 4 7 2 4 1007.9 1007.7 44.0
20/11:30am 24.1 28.7 22.4 90 1.1 NE 2 6 1 3 1008.1 1007.9 43.0
20/11:00am 23.8 27.4 22.1 90 1.1 ESE 6 7 3 4 1008.6 1008.4 41.6
20/10:30am 23.4 25.4 21.5 89 1.3 WNW 13 24 7 13 1009.3 1009.1 39.8

Other Formats:

Comma delimited format used in spreadsheet applications
http://www.bom.gov.au/fwo/IDW60801/IDW60801.94100.axf

JavaScript Object Notation format (JSON) in row-major order
http://www.bom.gov.au/fwo/IDW60801/IDW60801.94100.json